createdAt,value
2022-12-03T00:02:21.759Z,93.62
2022-12-03T00:04:48.355Z,92.04
2022-12-03T00:07:14.850Z,92.71
2022-12-03T00:09:41.282Z,93.64
2022-12-03T00:12:07.680Z,93.82
2022-12-03T00:14:34.149Z,93.38
2022-12-03T00:17:00.589Z,92.87
2022-12-03T00:19:27.013Z,92.87
2022-12-03T00:21:53.904Z,93.56
2022-12-03T00:24:20.336Z,93.20
2022-12-03T00:26:46.745Z,93.32
2022-12-03T00:29:13.219Z,93.00
2022-12-03T00:31:39.694Z,92.57
2022-12-03T00:34:06.117Z,92.91
2022-12-03T00:36:32.554Z,94.53
2022-12-03T00:38:58.976Z,94.31
2022-12-03T00:41:25.391Z,94.19
2022-12-03T00:43:52.850Z,93.58
2022-12-03T00:46:21.986Z,94.28
2022-12-03T00:48:48.514Z,93.80
2022-12-03T00:51:15.082Z,94.07
2022-12-03T00:53:41.532Z,94.28
2022-12-03T00:56:08.371Z,94.98
2022-12-03T00:58:34.886Z,94.19
2022-12-03T01:01:01.391Z,94.09
2022-12-03T01:03:27.964Z,94.40
2022-12-03T01:05:56.490Z,95.93
2022-12-03T01:08:24.342Z,95.09
2022-12-03T01:10:50.759Z,95.50
2022-12-03T01:13:17.244Z,95.85
2022-12-03T01:15:43.733Z,94.29
2022-12-03T01:18:10.208Z,94.56
2022-12-03T01:20:38.502Z,94.56
2022-12-03T01:23:05.218Z,94.66
2022-12-03T01:25:32.890Z,94.75
2022-12-03T01:27:59.365Z,94.58
2022-12-03T01:30:25.804Z,93.96
2022-12-03T01:32:52.238Z,94.84
2022-12-03T01:35:18.809Z,95.79
2022-12-03T01:37:45.212Z,95.76
2022-12-03T01:40:16.177Z,95.53
2022-12-03T01:42:42.833Z,95.81
2022-12-03T01:45:21.504Z,95.76
2022-12-03T01:47:48.078Z,96.46
2022-12-03T01:50:19.897Z,95.91
2022-12-03T01:52:47.386Z,95.63
2022-12-03T01:55:16.790Z,96.16
2022-12-03T01:57:49.748Z,95.98
2022-12-03T02:00:18.747Z,95.61
2022-12-03T02:02:45.622Z,96.10
2022-12-03T02:05:18.987Z,96.37
2022-12-03T02:07:45.562Z,96.55
2022-12-03T02:10:13.641Z,96.50
2022-12-03T02:12:44.268Z,96.73
2022-12-03T02:15:11.130Z,97.34
2022-12-03T02:17:37.742Z,97.50
2022-12-03T02:20:06.094Z,96.38
2022-12-03T02:22:54.405Z,96.07
2022-12-03T02:25:23.515Z,96.40
2022-12-03T02:27:50.518Z,95.81
2022-12-03T02:30:20.321Z,95.28
2022-12-03T02:32:47.803Z,96.43
2022-12-03T02:35:19.803Z,96.66
2022-12-03T02:37:48.222Z,96.33
2022-12-03T02:40:19.029Z,95.72
2022-12-03T02:42:50.469Z,95.71
2022-12-03T02:45:21.500Z,95.69
2022-12-03T02:47:53.361Z,95.68
2022-12-03T02:50:22.310Z,96.29
2022-12-03T02:52:49.330Z,96.64
2022-12-03T02:55:16.573Z,97.30
2022-12-03T02:57:48.099Z,96.71
2022-12-03T03:00:15.575Z,96.72
2022-12-03T03:02:44.667Z,97.63
2022-12-03T03:05:12.560Z,97.66
2022-12-03T03:07:39.683Z,96.96
2022-12-03T03:10:07.777Z,96.92
2022-12-03T03:12:39.284Z,97.20
2022-12-03T03:15:08.165Z,97.42
2022-12-03T03:17:35.078Z,97.58
2022-12-03T03:20:02.529Z,96.97
2022-12-03T03:22:40.186Z,96.50
2022-12-03T03:25:13.121Z,96.63
2022-12-03T03:27:40.893Z,97.14
2022-12-03T03:30:16.061Z,97.26
2022-12-03T03:32:42.799Z,97.20
2022-12-03T03:35:10.214Z,97.41
2022-12-03T03:37:36.740Z,97.70
2022-12-03T03:40:03.407Z,97.90
2022-12-03T03:42:29.857Z,98.17
2022-12-03T03:44:56.440Z,97.81
2022-12-03T03:47:23.826Z,97.77
2022-12-03T03:49:50.865Z,97.30
2022-12-03T03:52:19.038Z,97.01
2022-12-03T03:54:45.850Z,97.33
2022-12-03T03:57:12.534Z,97.27
2022-12-03T03:59:38.961Z,97.69
2022-12-03T04:02:05.386Z,98.16
2022-12-03T04:04:35.751Z,98.03
2022-12-03T04:07:02.635Z,97.96
2022-12-03T04:09:31.654Z,97.58
2022-12-03T04:12:17.539Z,98.14
2022-12-03T04:14:44.002Z,97.67
2022-12-03T04:17:12.999Z,98.31
2022-12-03T04:19:39.447Z,98.40
2022-12-03T04:22:24.333Z,98.98
2022-12-03T04:24:51.185Z,98.94
2022-12-03T04:27:36.280Z,99.11
2022-12-03T04:30:04.529Z,98.83
2022-12-03T04:32:52.437Z,98.70
2022-12-03T04:35:44.393Z,99.44
2022-12-03T04:38:12.210Z,99.32
2022-12-03T04:40:58.899Z,99.99
2022-12-03T04:43:27.413Z,99.90
2022-12-03T04:45:54.696Z,99.94
2022-12-03T04:48:21.194Z,100.00
2022-12-03T04:50:50.609Z,100.00
2022-12-03T04:53:17.028Z,100.00
2022-12-03T04:55:43.470Z,100.00
2022-12-03T04:58:10.123Z,99.92
2022-12-03T05:00:36.618Z,100.00
2022-12-03T05:03:03.259Z,100.00
2022-12-03T05:05:29.751Z,100.00
2022-12-03T05:07:57.295Z,100.00
2022-12-03T05:10:23.820Z,100.00
2022-12-03T05:12:50.240Z,100.00
2022-12-03T05:15:16.739Z,100.00
2022-12-03T05:17:43.205Z,100.00
2022-12-03T05:20:52.930Z,100.00
2022-12-03T05:23:21.678Z,100.00
2022-12-03T05:25:48.309Z,99.41
2022-12-03T05:28:14.778Z,99.36
2022-12-03T05:30:41.581Z,100.00
2022-12-03T05:33:08.097Z,100.00
2022-12-03T05:35:34.521Z,100.00
2022-12-03T05:38:01.275Z,99.65
2022-12-03T05:40:28.043Z,99.61
2022-12-03T05:42:54.550Z,99.36
2022-12-03T05:46:03.425Z,99.02
2022-12-03T05:48:29.893Z,99.41
2022-12-03T05:50:56.371Z,99.16
2022-12-03T05:53:22.917Z,99.13
2022-12-03T05:55:49.331Z,99.47
2022-12-03T05:58:15.750Z,99.59
2022-12-03T06:00:44.949Z,99.90
2022-12-03T06:03:11.624Z,99.51
2022-12-03T06:05:38.305Z,100.00
2022-12-03T06:08:05.056Z,100.00
2022-12-03T06:10:31.583Z,100.00
2022-12-03T06:12:58.003Z,100.00
2022-12-03T06:15:24.538Z,100.00
2022-12-03T06:17:51.602Z,100.00
2022-12-03T06:20:19.772Z,100.00
2022-12-03T06:22:46.777Z,100.00
2022-12-03T06:25:14.358Z,100.00
2022-12-03T06:27:40.754Z,99.98
2022-12-03T06:30:08.959Z,99.81
2022-12-03T06:32:35.534Z,99.10
2022-12-03T06:35:02.202Z,98.89
2022-12-03T06:37:28.869Z,99.62
2022-12-03T06:39:55.302Z,98.43
2022-12-03T06:42:21.919Z,98.39
2022-12-03T06:44:48.545Z,98.15
2022-12-03T06:47:16.599Z,98.76
2022-12-03T06:49:43.057Z,98.91
2022-12-03T06:52:09.547Z,99.04
2022-12-03T06:54:36.003Z,99.77
2022-12-03T06:57:02.599Z,100.00
2022-12-03T06:59:35.251Z,99.65
2022-12-03T07:02:01.832Z,99.68
2022-12-03T07:04:28.266Z,99.14
2022-12-03T07:06:54.731Z,99.42
2022-12-03T07:09:59.189Z,99.83
2022-12-03T07:13:03.339Z,99.19
2022-12-03T07:15:29.847Z,100.00
2022-12-03T07:17:56.262Z,100.00
2022-12-03T07:20:22.850Z,100.00
2022-12-03T07:22:49.316Z,99.54
2022-12-03T07:25:19.652Z,99.51
2022-12-03T07:27:49.467Z,99.42
2022-12-03T07:30:16.385Z,100.00
2022-12-03T07:32:42.833Z,99.95
2022-12-03T07:35:09.680Z,100.00
2022-12-03T07:37:36.426Z,100.00
2022-12-03T07:40:03.571Z,100.00
2022-12-03T07:42:30.260Z,100.00
2022-12-03T07:44:56.808Z,100.00
2022-12-03T07:47:23.311Z,100.00
2022-12-03T07:49:49.847Z,100.00
2022-12-03T07:52:16.355Z,100.00
2022-12-03T07:54:43.659Z,100.00
2022-12-03T07:57:10.106Z,100.00
2022-12-03T07:59:36.727Z,100.00
2022-12-03T08:02:03.337Z,100.00
2022-12-03T08:04:54.496Z,100.00
2022-12-03T08:07:21.433Z,100.00
2022-12-03T08:09:47.954Z,100.00
2022-12-03T08:13:17.010Z,100.00
2022-12-03T08:15:44.007Z,100.00
2022-12-03T08:22:01.595Z,100.00
2022-12-03T08:24:29.253Z,100.00
2022-12-03T08:26:57.054Z,100.00
2022-12-03T08:29:24.915Z,100.00
2022-12-03T08:31:55.186Z,100.00
2022-12-03T08:34:23.957Z,100.00
2022-12-03T08:36:59.657Z,100.00
2022-12-03T08:39:30.256Z,100.00
2022-12-03T08:42:21.143Z,100.00
2022-12-03T08:44:47.710Z,100.00
2022-12-03T08:47:19.296Z,100.00
2022-12-03T08:49:51.729Z,100.00
2022-12-03T08:52:47.356Z,100.00
2022-12-03T08:55:35.630Z,100.00
2022-12-03T08:58:18.331Z,100.00
2022-12-03T09:00:52.057Z,100.00
2022-12-03T09:03:19.211Z,100.00
2022-12-03T09:05:45.640Z,100.00
2022-12-03T09:08:12.280Z,100.00
2022-12-03T09:10:38.775Z,100.00
2022-12-03T09:13:25.759Z,100.00
2022-12-03T09:15:53.477Z,100.00
2022-12-03T09:18:19.906Z,100.00
2022-12-03T09:20:46.347Z,100.00
2022-12-03T09:23:12.769Z,100.00
2022-12-03T09:25:39.215Z,100.00
2022-12-03T09:28:05.680Z,100.00
2022-12-03T09:30:32.159Z,100.00
2022-12-03T09:33:00.067Z,100.00
2022-12-03T09:35:27.559Z,100.00
2022-12-03T09:37:54.087Z,100.00
2022-12-03T09:40:21.269Z,100.00
2022-12-03T09:42:48.270Z,100.00
2022-12-03T09:45:15.855Z,100.00
2022-12-03T09:47:46.371Z,100.00
2022-12-03T09:50:16.678Z,100.00
2022-12-03T09:52:45.106Z,100.00
2022-12-03T09:55:15.796Z,100.00
2022-12-03T09:57:42.365Z,100.00
2022-12-03T10:00:26.667Z,100.00
2022-12-03T10:02:55.434Z,100.00
2022-12-03T10:05:22.767Z,100.00
2022-12-03T10:07:51.317Z,100.00
2022-12-03T10:10:21.641Z,100.00
2022-12-03T10:12:48.613Z,100.00
2022-12-03T10:15:17.542Z,100.00
2022-12-03T10:17:46.169Z,100.00
2022-12-03T10:20:14.199Z,100.00
2022-12-03T10:22:41.466Z,100.00
2022-12-03T10:25:11.767Z,100.00
2022-12-03T10:27:58.770Z,100.00
2022-12-03T10:30:30.795Z,100.00
2022-12-03T10:32:58.506Z,100.00
2022-12-03T10:35:36.788Z,100.00
2022-12-03T10:38:04.320Z,100.00
2022-12-03T10:40:36.172Z,100.00
2022-12-03T10:43:26.298Z,100.00
2022-12-03T10:46:04.199Z,100.00
2022-12-03T10:48:33.194Z,100.00
2022-12-03T10:51:13.739Z,100.00
2022-12-03T10:53:41.128Z,100.00
2022-12-03T10:56:15.451Z,100.00
2022-12-03T10:58:42.101Z,100.00
2022-12-03T11:01:23.009Z,100.00
2022-12-03T11:03:50.120Z,100.00
2022-12-03T11:06:18.911Z,100.00
2022-12-03T11:08:51.584Z,100.00
2022-12-03T11:11:23.909Z,100.00
2022-12-03T11:14:01.274Z,100.00
2022-12-03T11:16:42.143Z,100.00
2022-12-03T11:19:20.947Z,100.00
2022-12-03T11:22:05.814Z,100.00
2022-12-03T11:24:34.137Z,100.00
2022-12-03T11:27:00.504Z,100.00
2022-12-03T11:29:55.679Z,100.00
2022-12-03T11:32:43.707Z,100.00
2022-12-03T11:35:26.985Z,100.00
2022-12-03T11:38:37.990Z,100.00
2022-12-03T11:41:21.106Z,100.00
2022-12-03T11:44:00.951Z,100.00
2022-12-03T11:46:46.450Z,100.00
2022-12-03T11:49:27.677Z,100.00
2022-12-03T11:51:54.270Z,100.00
2022-12-03T11:54:25.862Z,100.00
2022-12-03T11:56:53.223Z,100.00
2022-12-03T11:59:20.218Z,100.00
2022-12-03T12:01:46.922Z,100.00
2022-12-03T12:04:32.777Z,100.00
2022-12-03T12:06:59.980Z,100.00
2022-12-03T12:09:58.950Z,100.00
2022-12-03T12:12:31.075Z,100.00
2022-12-03T12:14:58.855Z,100.00
2022-12-03T12:17:41.299Z,100.00
2022-12-03T12:20:27.475Z,100.00
2022-12-03T12:22:55.254Z,100.00
2022-12-03T12:25:53.910Z,100.00
2022-12-03T12:28:20.903Z,100.00
2022-12-03T12:30:48.477Z,100.00
2022-12-03T12:33:23.071Z,100.00
2022-12-03T12:35:49.659Z,100.00
2022-12-03T12:38:20.905Z,100.00
2022-12-03T12:40:49.382Z,100.00
2022-12-03T12:43:25.001Z,100.00
2022-12-03T12:45:56.578Z,100.00
2022-12-03T12:48:35.986Z,100.00
2022-12-03T12:51:18.758Z,100.00
2022-12-03T12:53:47.665Z,100.00
2022-12-03T12:56:33.624Z,100.00
2022-12-03T12:59:25.905Z,100.00
2022-12-03T13:01:52.636Z,100.00
2022-12-03T13:04:23.702Z,100.00
2022-12-03T13:06:54.969Z,100.00
2022-12-03T13:09:23.922Z,100.00
2022-12-03T13:12:10.154Z,100.00
2022-12-03T13:14:37.328Z,100.00
2022-12-03T13:17:24.715Z,100.00
2022-12-03T13:20:00.496Z,99.70
2022-12-03T13:22:33.180Z,99.26
2022-12-03T13:25:27.956Z,99.65
2022-12-03T13:28:23.847Z,100.00
2022-12-03T13:30:52.964Z,100.00
2022-12-03T13:33:26.817Z,100.00
2022-12-03T13:35:56.926Z,100.00
2022-12-03T13:38:25.073Z,100.00
2022-12-03T13:40:59.468Z,100.00
2022-12-03T13:43:31.341Z,100.00
2022-12-03T13:45:58.202Z,100.00
2022-12-03T13:48:31.560Z,100.00
2022-12-03T13:51:01.982Z,100.00
2022-12-03T13:53:37.479Z,100.00
2022-12-03T13:56:27.466Z,100.00
2022-12-03T13:58:54.923Z,100.00
2022-12-03T14:01:21.677Z,100.00
2022-12-03T14:03:48.309Z,100.00
2022-12-03T14:06:14.793Z,100.00
2022-12-03T14:08:41.352Z,100.00
2022-12-03T14:11:07.818Z,100.00
2022-12-03T14:13:34.282Z,100.00
2022-12-03T14:16:03.498Z,100.00
2022-12-03T14:18:31.414Z,100.00
2022-12-03T14:20:57.905Z,100.00
2022-12-03T14:23:24.393Z,100.00
2022-12-03T14:25:50.842Z,100.00
2022-12-03T14:28:17.326Z,100.00
2022-12-03T14:30:43.809Z,100.00
2022-12-03T14:33:10.278Z,100.00
2022-12-03T14:35:36.726Z,100.00
2022-12-03T14:38:04.254Z,100.00
2022-12-03T14:40:33.081Z,100.00
2022-12-03T14:42:59.530Z,100.00
2022-12-03T14:45:28.494Z,100.00
2022-12-03T14:47:55.017Z,100.00
2022-12-03T14:50:21.490Z,100.00
2022-12-03T14:52:47.951Z,100.00
2022-12-03T14:55:14.471Z,100.00
2022-12-03T14:57:41.389Z,100.00
2022-12-03T15:00:14.610Z,100.00
2022-12-03T15:02:41.238Z,100.00
2022-12-03T15:05:07.997Z,100.00
2022-12-03T15:07:34.663Z,100.00
2022-12-03T15:10:01.139Z,100.00
2022-12-03T15:12:27.763Z,100.00
2022-12-03T15:14:54.646Z,100.00
2022-12-03T15:17:31.035Z,100.00
2022-12-03T15:20:01.680Z,100.00
2022-12-03T15:22:28.138Z,100.00
2022-12-03T15:24:54.659Z,100.00
2022-12-03T15:27:21.141Z,100.00
2022-12-03T15:29:47.630Z,100.00
2022-12-03T15:32:16.589Z,100.00
2022-12-03T15:34:50.293Z,100.00
2022-12-03T15:37:17.249Z,100.00
2022-12-03T15:39:52.812Z,100.00
2022-12-03T15:42:22.100Z,100.00
2022-12-03T15:44:48.688Z,100.00
2022-12-03T15:47:15.112Z,100.00
2022-12-03T15:49:41.639Z,100.00
2022-12-03T15:52:18.648Z,100.00
2022-12-03T15:54:46.372Z,100.00
2022-12-03T15:57:14.322Z,100.00
2022-12-03T15:59:46.157Z,100.00
2022-12-03T16:02:12.665Z,100.00
2022-12-03T16:04:39.155Z,100.00
2022-12-03T16:07:05.664Z,100.00
2022-12-03T16:09:34.368Z,100.00
2022-12-03T16:12:00.807Z,100.00
2022-12-03T16:14:28.712Z,100.00
2022-12-03T16:16:55.279Z,100.00
2022-12-03T16:19:21.719Z,100.00
2022-12-03T16:21:48.172Z,100.00
2022-12-03T16:24:14.686Z,100.00
2022-12-03T16:26:41.116Z,100.00
2022-12-03T16:29:07.546Z,100.00
2022-12-03T16:31:34.042Z,100.00
2022-12-03T16:34:00.525Z,100.00
2022-12-03T16:36:29.959Z,100.00
2022-12-03T16:38:56.405Z,100.00
2022-12-03T16:41:25.140Z,100.00
2022-12-03T16:43:51.780Z,100.00
2022-12-03T16:46:20.674Z,100.00
2022-12-03T16:48:54.127Z,100.00
2022-12-03T16:51:20.893Z,100.00
2022-12-03T16:53:47.949Z,100.00
2022-12-03T16:56:14.846Z,100.00
2022-12-03T16:58:41.517Z,100.00
2022-12-03T17:01:08.098Z,100.00
2022-12-03T17:03:36.877Z,100.00
2022-12-03T17:06:04.242Z,100.00
2022-12-03T17:08:31.139Z,100.00
2022-12-03T17:10:57.966Z,100.00
2022-12-03T17:13:24.477Z,100.00
2022-12-03T17:15:51.371Z,100.00
2022-12-03T17:18:18.019Z,100.00
2022-12-03T17:20:44.461Z,100.00
2022-12-03T17:23:11.851Z,100.00
2022-12-03T17:25:38.302Z,100.00
2022-12-03T17:28:05.019Z,100.00
2022-12-03T17:30:31.471Z,100.00
2022-12-03T17:32:57.938Z,100.00
2022-12-03T17:35:25.055Z,100.00
2022-12-03T17:37:52.820Z,100.00
2022-12-03T17:40:21.421Z,100.00
2022-12-03T17:42:48.313Z,100.00
2022-12-03T17:45:14.938Z,100.00
2022-12-03T17:47:43.811Z,100.00
2022-12-03T17:50:12.873Z,100.00
2022-12-03T17:52:40.843Z,100.00
2022-12-03T17:55:15.712Z,100.00
2022-12-03T17:57:44.633Z,100.00
2022-12-03T18:00:11.793Z,100.00
2022-12-03T18:02:38.263Z,100.00
2022-12-03T18:05:04.904Z,100.00
2022-12-03T18:07:31.380Z,100.00
2022-12-03T18:10:00.529Z,100.00
2022-12-03T18:12:27.161Z,100.00
2022-12-03T18:14:53.695Z,100.00
2022-12-03T18:17:20.190Z,100.00
2022-12-03T18:19:46.630Z,100.00
2022-12-03T18:22:16.040Z,100.00
2022-12-03T18:24:44.937Z,100.00
2022-12-03T18:27:12.602Z,100.00
2022-12-03T18:29:39.161Z,100.00
2022-12-03T18:32:27.008Z,100.00
2022-12-03T18:34:55.250Z,100.00
2022-12-03T18:37:21.741Z,100.00
2022-12-03T18:40:20.209Z,100.00
2022-12-03T18:42:47.470Z,100.00
2022-12-03T18:45:14.893Z,100.00
2022-12-03T18:47:41.449Z,100.00
2022-12-03T18:50:15.647Z,100.00
2022-12-03T18:52:42.245Z,100.00
2022-12-03T18:55:10.840Z,100.00
2022-12-03T18:57:43.397Z,100.00
2022-12-03T19:00:14.092Z,100.00
2022-12-03T19:05:27.286Z,100.00
2022-12-03T19:07:57.937Z,100.00
2022-12-03T19:10:24.728Z,100.00
2022-12-03T19:12:51.444Z,100.00
2022-12-03T19:15:18.019Z,100.00
2022-12-03T19:17:50.614Z,100.00
2022-12-03T19:20:17.255Z,100.00
2022-12-03T19:22:44.821Z,100.00
2022-12-03T19:25:11.332Z,100.00
2022-12-03T19:27:37.825Z,100.00
2022-12-03T19:30:05.513Z,100.00
2022-12-03T19:32:35.715Z,100.00
2022-12-03T19:35:05.039Z,100.00
2022-12-03T19:37:33.622Z,100.00
2022-12-03T19:40:00.967Z,100.00
2022-12-03T19:42:27.631Z,100.00
2022-12-03T19:44:54.180Z,100.00
2022-12-03T19:47:24.791Z,100.00
2022-12-03T19:49:53.005Z,100.00
2022-12-03T19:52:20.098Z,100.00
2022-12-03T19:54:47.332Z,100.00
2022-12-03T19:59:54.941Z,100.00
2022-12-03T20:02:23.238Z,100.00
2022-12-03T20:04:50.059Z,100.00
2022-12-03T20:07:16.511Z,100.00
2022-12-03T20:09:43.029Z,100.00
2022-12-03T20:12:09.497Z,100.00
2022-12-03T20:14:35.964Z,100.00
2022-12-03T20:17:02.504Z,100.00
2022-12-03T20:19:31.605Z,100.00
2022-12-03T20:22:02.574Z,100.00
2022-12-03T20:24:29.562Z,100.00
2022-12-03T20:26:59.959Z,100.00
2022-12-03T20:29:26.468Z,100.00
2022-12-03T20:31:53.071Z,100.00
2022-12-03T20:34:19.652Z,99.68
2022-12-03T20:36:46.126Z,99.00
2022-12-03T20:39:12.655Z,98.89
2022-12-03T20:41:39.063Z,99.61
2022-12-03T20:44:08.039Z,99.79
2022-12-03T20:46:34.680Z,100.00
2022-12-03T20:49:01.208Z,99.83
2022-12-03T20:51:29.934Z,100.00
2022-12-03T20:53:57.603Z,100.00
2022-12-03T20:56:31.153Z,100.00
2022-12-03T20:59:07.536Z,99.08
2022-12-03T21:01:35.764Z,99.59
2022-12-03T21:04:04.137Z,100.00
2022-12-03T21:06:31.343Z,99.68
2022-12-03T21:08:59.048Z,99.33
2022-12-03T21:11:29.368Z,99.86
2022-12-03T21:13:55.962Z,99.70
2022-12-03T21:16:51.899Z,99.52
2022-12-03T21:19:12.399Z,99.68
2022-12-03T21:21:38.857Z,99.41
2022-12-03T21:24:05.542Z,100.00
2022-12-03T21:26:33.607Z,99.22
2022-12-03T21:29:00.040Z,98.85
2022-12-03T21:31:27.257Z,99.54
2022-12-03T21:33:54.764Z,99.20
2022-12-03T21:36:21.523Z,99.56
2022-12-03T21:38:48.266Z,100.00
2022-12-03T21:41:14.726Z,100.00
2022-12-03T21:43:41.742Z,100.00
2022-12-03T21:47:11.509Z,100.00
2022-12-03T21:48:57.050Z,100.00
2022-12-03T21:51:23.549Z,100.00
2022-12-03T21:53:50.023Z,100.00
2022-12-03T21:56:19.428Z,99.73
2022-12-03T21:58:46.287Z,99.26
2022-12-03T22:01:23.765Z,98.87
2022-12-03T22:03:50.803Z,98.92
2022-12-03T22:06:17.854Z,100.00
2022-12-03T22:08:44.504Z,99.58
2022-12-03T22:11:19.060Z,99.54
2022-12-03T22:13:45.656Z,99.83
2022-12-03T22:16:17.600Z,99.55
2022-12-03T22:18:44.301Z,99.73
2022-12-03T22:21:13.325Z,100.00
2022-12-03T22:23:40.297Z,100.00
2022-12-03T22:26:09.415Z,100.00
2022-12-03T22:28:37.339Z,99.99
2022-12-03T22:31:08.019Z,100.00
2022-12-03T22:33:34.785Z,99.90
2022-12-03T22:36:22.118Z,100.00
2022-12-03T22:38:49.626Z,100.00
2022-12-03T22:41:16.959Z,100.00
2022-12-03T22:43:43.393Z,100.00
2022-12-03T22:46:13.354Z,100.00
2022-12-03T22:48:43.800Z,99.67
2022-12-03T22:51:16.083Z,99.22
2022-12-03T22:53:42.500Z,98.80
2022-12-03T22:56:09.050Z,98.69
2022-12-03T22:58:37.313Z,98.81
2022-12-03T23:01:03.810Z,100.00
2022-12-03T23:03:30.700Z,99.55
2022-12-03T23:05:57.187Z,99.06
2022-12-03T23:08:24.771Z,99.28
2022-12-03T23:10:52.237Z,99.82
2022-12-03T23:13:19.554Z,99.45
2022-12-03T23:15:47.510Z,98.51
2022-12-03T23:18:14.360Z,99.20
2022-12-03T23:20:45.077Z,99.64
2022-12-03T23:23:11.881Z,100.00
2022-12-03T23:25:38.396Z,100.00
2022-12-03T23:28:05.565Z,100.00
2022-12-03T23:30:35.962Z,100.00
2022-12-03T23:33:02.851Z,100.00
2022-12-03T23:35:29.346Z,100.00
2022-12-03T23:37:55.800Z,100.00
2022-12-03T23:40:22.296Z,100.00
2022-12-03T23:42:48.807Z,100.00
2022-12-03T23:45:15.234Z,100.00
2022-12-03T23:47:41.689Z,100.00
2022-12-03T23:50:08.363Z,100.00
2022-12-03T23:52:38.100Z,100.00
2022-12-03T23:55:05.380Z,100.00
2022-12-03T23:57:32.035Z,100.00
2022-12-03T23:59:58.467Z,100.00
